Saint Clairsville, OH (43950)

8:19 AM EDT on July 25, 2014 (GMT -0400)
Crawford Heights (KOHMARTI3) Elev 1109 ft | 40.09 °N, 80.75 °W | Change Station

Current weather conditions updated 2 minutes ago

Mostly Cloudy
Mostly Cloudy
59.4 °F
Feels Like 59.4 °F
N
4.7
Wind Variable Wind from ESE

Today is forecast to be nearly the same temperature as yesterday.

Today
High -- | Low -- °F
--% Chance of Precip.
Yesterday
High -- | Low -- °F
Precip. -- in
6:15 AM 8:44 PM
Waning Crescent, 2% visible
Pressure 30.12 in
Visibility 4.0 miles
Clouds Mostly Cloudy 100 ft
Dew Point 56 °F
Humidity 87%
Rainfall 0.00 in
Snow Depth Not available.
UV 1 out of 12
Pollen 5.60 out of 12
Air Quality Not available.
Flu Activity Not available.
SPECI KHLG 251214Z 00000KT 4SM R03/2000VP6000FT BR BKN001 13/12 A3012 RMK AO2 T01330122

More Conditions Fewer Conditions

Pressure 30.12 in
Visibility 4.0 miles
Clouds Mostly Cloudy 100 ft
Dew Point 56 °F
Humidity 87%
Rainfall 0.00 in
Snow Depth Not available.
UV 1 out of 12
Pollen 5.60 out of 12
Air Quality Not available.
Flu Activity Not available.
SPECI KHLG 251214Z 00000KT 4SM R03/2000VP6000FT BR BKN001 13/12 A3012 RMK AO2 T01330122

More Conditions Fewer Conditions

10-Day Weather Forecast

Almanac

Astronomy

Jul. 25, 2014 Rise Set
Actual Time 6:15 AM EDT 8:44 PM EDT
Civil Twilight 5:44 AM EDT 9:15 PM EDT
Nautical Twilight 5:05 AM EDT 9:53 PM EDT
Astronomical Twilight 4:22 AM EDT 10:36 PM EDT
Moon 5:13 AM EDT 7:40 PM EDT
Length of Visible Light 15h 30m
Length of Day
14h 28m
Tomorrow will be 1m 46s shorter.
Waning Crescent, 2% of the Moon is Illuminated
Today
Waning Crescent
Jul 26
New
Aug 3
First Quarter
Aug 10
Full
Aug 17
Last Quarter

Today's Extremes

State Highs State Lows

Community

WunderPhotos

Upload Photos

1,737,300 photos uploaded!

Nearby

Snow Depth

Station Depth Elevation
No new snow has been reported.

Earthquake Activity

City Distance Mag. Time & Date
No recent earthquake activity has been reported nearby.
Minimum magnitude displayed is 2.5.

Coastal Water Temperatures

Place Temperature
No Stations Reporting

Nearby Weather Stations

Station Location Temp. Dew Point Humidity Wind Precip. Elev Updated Type
Crawford Heights, Martins Ferry, OH 59.4 °F 56 °F 87% ESE  at  4.7 mph - / hr 1109 ft 8:17 AM EDT Normal
Shadyside, Ohio, Shadyside, OH 60.0 °F 56 °F 88% ESE  at  0.0 mph 0.00 in / hr 669 ft 8:19 AM EDT Rapid Fire
Whitmar Hills, Wheeling, WV 54.7 °F 55 °F 100% NNW  at  0.0 mph 0.00 in / hr 1060 ft 8:15 AM EDT Normal
Clinton Hills, Triadelphia, WV 53.2 °F 53 °F 99% East  at  0.0 mph - / hr 1122 ft 8:12 AM EDT Normal
Jerusalem, Jerusalem, OH 61.9 °F 56 °F 81% NNE  at  0.0 mph 0.00 in / hr 1253 ft 8:19 AM EDT Rapid Fire
West Alexander, West Alexander, PA 58.5 °F 57 °F 94% SE  at  0.0 mph - / hr 1191 ft 8:11 AM EDT Normal
Sunset Gardens, Wintersville, OH 53.6 °F 53 °F 98% NNE  at  0.0 mph 0.00 in / hr 1150 ft 8:15 AM EDT Normal

Show More Stations Show Fewer Stations